Malgrat de Mar, Spain
Current Conditions -  °F | °C
As of 6:30 AM on Friday 31 Oct 2014 (Local Time) from LEGE Reporting Station
Light Fog Light Fog  
Wind Chill: 52°   Ceiling: Unl
Heat Index: 52°   Visibility: 1.8mi
Dew Point: 52°   Wind: 0mph
Humidity: 100%   Direction: NA
Pressure: 30.24"   Gusts: NA
Location:  41.65°N, 2.74°E
Report Text: LEGE 310530Z 00000KT 3000 BCFG SCT002 11/11 Q1024
Loading
Personal Weather Stations






























Interactive Weather Map
Tropical Storm Tracking
New forecast layout! Learn more

10-Day Weather Forecast

Advertisements
Track Severe Weather on mobile